Time;durP1;ratioP1;P1;durP2;ratioP2;P2;SDS_P1;SDS_P2;PMS_P1;PMS_P2;Temp;Humidity;BMP_temperature;BMP_pressure;BME280_temperature;BME280_humidity;BME280_pressure;Samples;Min_cycle;Max_cycle;Signal;HPM_P1;HPM_P2
2023/10/28 00:00:50;;;;;;;18.00;11.00;;;;;;;;;;5126789;27;20442;-69
2023/10/28 00:03:17;;;;;;;23.77;14.17;;;;;;;;;;5131861;27;20445;-69
2023/10/28 00:05:45;;;;;;;20.53;13.17;;;;;;;;;;5116783;27;20477;-69
2023/10/28 00:08:11;;;;;;;26.17;12.90;;;;;;;;;;5121684;27;20536;-69
2023/10/28 00:10:40;;;;;;;23.13;12.40;;;;;;;;;;5114327;27;20446;-70
2023/10/28 00:13:08;;;;;;;18.40;13.20;;;;;;;;;;5112506;28;21307;-70
2023/10/28 00:15:37;;;;;;;18.37;12.20;;;;;;;;;;5113645;27;20453;-71
2023/10/28 00:18:04;;;;;;;24.57;13.43;;;;;;;;;;5118698;27;20442;-72
2023/10/28 00:20:32;;;;;;;23.43;14.03;;;;;;;;;;5110879;27;21521;-71
2023/10/28 00:22:59;;;;;;;22.30;13.40;;;;;;;;;;5120471;27;20464;-71
2023/10/28 00:25:27;;;;;;;22.80;12.00;;;;;;;;;;5116943;27;20557;-71
2023/10/28 00:27:57;;;;;;;21.60;12.87;;;;;;;;;;5116993;27;20497;-71
2023/10/28 00:30:24;;;;;;;21.80;11.63;;;;;;;;;;5114228;27;20449;-71
2023/10/28 00:32:50;;;;;;;19.90;12.30;;;;;;;;;;5127603;27;20480;-71
2023/10/28 00:35:17;;;;;;;23.70;12.03;;;;;;;;;;5134462;27;20445;-71
2023/10/28 00:37:44;;;;;;;19.53;9.63;;;;;;;;;;5121500;27;20468;-71
2023/10/28 00:40:11;;;;;;;15.67;9.03;;;;;;;;;;5131266;27;20446;-71
2023/10/28 00:42:38;;;;;;;17.20;8.03;;;;;;;;;;5126800;27;20486;-71
2023/10/28 00:45:08;;;;;;;14.93;8.63;;;;;;;;;;5114712;27;20441;-71
2023/10/28 00:47:35;;;;;;;17.63;9.63;;;;;;;;;;5118477;27;20497;-71
2023/10/28 00:50:02;;;;;;;14.33;10.10;;;;;;;;;;5128223;27;20449;-70
2023/10/28 00:52:28;;;;;;;16.40;9.67;;;;;;;;;;5124050;27;20450;-70
2023/10/28 00:54:56;;;;;;;14.80;9.70;;;;;;;;;;5119607;27;20510;-71
2023/10/28 00:57:22;;;;;;;13.90;8.83;;;;;;;;;;5110724;28;20226;-71
2023/10/28 00:59:49;;;;;;;16.27;10.00;;;;;;;;;;5107546;28;20480;-71
2023/10/28 01:02:17;;;;;;;13.10;9.07;;;;;;;;;;5113579;27;20479;-70
2023/10/28 01:04:44;;;;;;;13.27;9.43;;;;;;;;;;5126644;27;20464;-71
2023/10/28 01:07:10;;;;;;;14.00;7.77;;;;;;;;;;5120861;27;20484;-71
2023/10/28 01:09:44;;;;;;;15.63;8.03;;;;;;;;;;5131370;27;20445;-70
2023/10/28 01:12:12;;;;;;;16.30;8.37;;;;;;;;;;5128187;27;20480;-70
2023/10/28 01:14:39;;;;;;;12.97;8.60;;;;;;;;;;5125106;27;20467;-70
2023/10/28 01:17:06;;;;;;;11.90;7.60;;;;;;;;;;5123589;27;20480;-69
2023/10/28 01:19:34;;;;;;;13.50;9.90;;;;;;;;;;5129000;27;20496;-71
2023/10/28 01:22:02;;;;;;;18.47;8.90;;;;;;;;;;5122514;27;20446;-71
2023/10/28 01:24:29;;;;;;;17.23;8.13;;;;;;;;;;5122015;27;20827;-71
2023/10/28 01:26:55;;;;;;;13.77;9.60;;;;;;;;;;5117877;27;20492;-71
2023/10/28 01:29:22;;;;;;;12.73;9.33;;;;;;;;;;5113006;27;20437;-71
2023/10/28 01:31:48;;;;;;;13.90;8.73;;;;;;;;;;5131363;27;21202;-71
2023/10/28 01:34:15;;;;;;;11.90;8.50;;;;;;;;;;5121594;27;20482;-71
2023/10/28 01:36:42;;;;;;;12.40;8.70;;;;;;;;;;5136900;27;20487;-70
2023/10/28 01:39:12;;;;;;;15.10;10.00;;;;;;;;;;5122947;27;20454;-71
2023/10/28 01:41:38;;;;;;;13.73;8.63;;;;;;;;;;5119911;27;20447;-71
2023/10/28 01:44:05;;;;;;;11.90;8.27;;;;;;;;;;5117265;27;20446;-72
2023/10/28 01:46:32;;;;;;;11.53;8.17;;;;;;;;;;5118279;27;20446;-71
2023/10/28 01:48:58;;;;;;;15.77;8.57;;;;;;;;;;5103378;27;20534;-72
2023/10/28 01:51:24;;;;;;;14.23;9.37;;;;;;;;;;5117671;28;21322;-72
2023/10/28 01:53:51;;;;;;;21.73;10.70;;;;;;;;;;5113762;27;21324;-71
2023/10/28 01:56:19;;;;;;;12.50;9.00;;;;;;;;;;5120849;27;20450;-71
2023/10/28 01:58:46;;;;;;;12.93;8.20;;;;;;;;;;5110578;27;20492;-71
2023/10/28 02:01:12;;;;;;;14.70;10.33;;;;;;;;;;5117515;28;20517;-71
2023/10/28 02:03:39;;;;;;;12.60;9.20;;;;;;;;;;5127607;27;20445;-71
2023/10/28 02:06:06;;;;;;;12.80;8.43;;;;;;;;;;5128184;27;20490;-70
2023/10/28 02:08:33;;;;;;;14.20;7.43;;;;;;;;;;5120543;27;20524;-71
2023/10/28 02:10:59;;;;;;;12.63;8.50;;;;;;;;;;5123787;27;20493;-71
2023/10/28 02:13:27;;;;;;;9.37;7.07;;;;;;;;;;5120052;27;20481;-71
2023/10/28 02:15:54;;;;;;;11.20;7.07;;;;;;;;;;5115817;28;20485;-71
2023/10/28 02:18:22;;;;;;;12.03;7.87;;;;;;;;;;5130709;27;20445;-70
2023/10/28 02:20:49;;;;;;;17.17;8.50;;;;;;;;;;5123600;27;20530;-70
2023/10/28 02:23:15;;;;;;;12.67;7.30;;;;;;;;;;5120289;28;21034;-71
2023/10/28 02:25:42;;;;;;;11.90;8.10;;;;;;;;;;5131720;28;20494;-71
2023/10/28 02:28:09;;;;;;;13.90;7.97;;;;;;;;;;5116952;28;20486;-71
2023/10/28 02:30:39;;;;;;;20.90;9.30;;;;;;;;;;5121790;28;20477;-71
2023/10/28 02:33:05;;;;;;;10.87;6.47;;;;;;;;;;5123163;28;20450;-71
2023/10/28 02:35:32;;;;;;;12.73;7.77;;;;;;;;;;5122788;28;20480;-71
2023/10/28 02:37:59;;;;;;;11.50;7.37;;;;;;;;;;5126594;27;20450;-71
2023/10/28 02:40:25;;;;;;;11.50;7.90;;;;;;;;;;5116880;27;20550;-71
2023/10/28 02:42:52;;;;;;;10.90;7.33;;;;;;;;;;5111455;28;20530;-71
2023/10/28 02:45:18;;;;;;;11.90;6.50;;;;;;;;;;5120874;28;20442;-71
2023/10/28 02:47:46;;;;;;;14.03;6.80;;;;;;;;;;5121067;28;20485;-72
2023/10/28 02:50:12;;;;;;;8.93;5.50;;;;;;;;;;5129413;27;20446;-71
2023/10/28 02:52:39;;;;;;;14.43;6.83;;;;;;;;;;5130266;27;20489;-71
2023/10/28 02:55:06;;;;;;;13.03;7.23;;;;;;;;;;5125284;27;20446;-71
2023/10/28 02:57:32;;;;;;;13.60;7.40;;;;;;;;;;5129639;27;20497;-71
2023/10/28 02:59:59;;;;;;;15.60;7.10;;;;;;;;;;5122144;27;20459;-71
2023/10/28 03:02:25;;;;;;;10.70;6.17;;;;;;;;;;5124437;27;20473;-71
2023/10/28 03:04:54;;;;;;;14.87;7.23;;;;;;;;;;5124362;27;20477;-70
2023/10/28 03:07:23;;;;;;;13.43;6.73;;;;;;;;;;5126795;27;20595;-70
2023/10/28 03:09:50;;;;;;;8.57;6.60;;;;;;;;;;5108884;27;20481;-71
2023/10/28 03:12:16;;;;;;;10.90;5.90;;;;;;;;;;5134616;27;20460;-71
2023/10/28 03:14:43;;;;;;;11.30;6.00;;;;;;;;;;5121422;28;20445;-71
2023/10/28 03:17:09;;;;;;;10.80;5.27;;;;;;;;;;5123747;27;20449;-71
2023/10/28 03:19:35;;;;;;;9.37;5.00;;;;;;;;;;5120644;27;20495;-71
2023/10/28 03:22:04;;;;;;;7.23;5.47;;;;;;;;;;5131984;27;20434;-70
2023/10/28 03:24:30;;;;;;;13.40;4.83;;;;;;;;;;5125810;27;20576;-71
2023/10/28 03:26:57;;;;;;;13.00;6.03;;;;;;;;;;5121232;27;21032;-71
2023/10/28 03:29:23;;;;;;;8.40;4.80;;;;;;;;;;5123273;27;20529;-71
2023/10/28 03:31:50;;;;;;;8.80;6.37;;;;;;;;;;5117924;28;20479;-71
2023/10/28 03:34:16;;;;;;;10.90;5.43;;;;;;;;;;5112572;28;20550;-71
2023/10/28 03:36:43;;;;;;;8.57;6.13;;;;;;;;;;5124151;27;20541;-71
2023/10/28 03:39:11;;;;;;;8.73;5.93;;;;;;;;;;5120851;28;20510;-70
2023/10/28 03:41:38;;;;;;;6.17;4.90;;;;;;;;;;5125279;27;20445;-71
2023/10/28 03:44:05;;;;;;;5.50;4.77;;;;;;;;;;5121974;27;20518;-70
2023/10/28 03:46:32;;;;;;;6.50;5.40;;;;;;;;;;5122419;27;20518;-71
2023/10/28 03:48:59;;;;;;;15.10;6.80;;;;;;;;;;5117417;27;20916;-71
2023/10/28 03:51:26;;;;;;;14.23;6.27;;;;;;;;;;5124950;27;20541;-71
2023/10/28 03:53:52;;;;;;;8.60;6.77;;;;;;;;;;5118239;27;20948;-70
2023/10/28 03:56:20;;;;;;;9.97;6.23;;;;;;;;;;5125424;27;20517;-71
2023/10/28 03:58:46;;;;;;;11.60;5.80;;;;;;;;;;5126091;27;21010;-71
2023/10/28 04:01:13;;;;;;;7.90;5.53;;;;;;;;;;5120557;27;20466;-71
2023/10/28 04:03:39;;;;;;;7.10;5.13;;;;;;;;;;5127299;27;20450;-71
2023/10/28 04:06:06;;;;;;;9.70;6.10;;;;;;;;;;5121248;27;20446;-71
2023/10/28 04:08:32;;;;;;;9.43;6.40;;;;;;;;;;5131220;27;20545;-71
2023/10/28 04:10:59;;;;;;;14.03;6.70;;;;;;;;;;5127272;27;20492;-70
2023/10/28 04:13:26;;;;;;;11.40;5.97;;;;;;;;;;5119393;27;20450;-71
2023/10/28 04:15:53;;;;;;;9.13;5.80;;;;;;;;;;5113451;27;20451;-71
2023/10/28 04:18:19;;;;;;;8.13;5.87;;;;;;;;;;5118611;27;21055;-71
2023/10/28 04:20:46;;;;;;;11.60;5.93;;;;;;;;;;5105604;28;20487;-70
2023/10/28 04:23:12;;;;;;;9.57;5.37;;;;;;;;;;5117149;27;20477;-70
2023/10/28 04:25:39;;;;;;;12.60;6.20;;;;;;;;;;5127404;27;20486;-71
2023/10/28 04:28:05;;;;;;;15.83;6.23;;;;;;;;;;5120497;27;20524;-72
2023/10/28 04:30:33;;;;;;;7.17;5.43;;;;;;;;;;5128662;27;20434;-71
2023/10/28 04:32:59;;;;;;;10.23;6.60;;;;;;;;;;5121327;27;20998;-69
2023/10/28 04:35:26;;;;;;;12.83;6.33;;;;;;;;;;5124980;27;20522;-71
2023/10/28 04:37:53;;;;;;;12.43;6.77;;;;;;;;;;5122217;27;20517;-71
2023/10/28 04:40:19;;;;;;;9.23;5.80;;;;;;;;;;5127071;27;20521;-70
2023/10/28 04:42:47;;;;;;;11.53;5.73;;;;;;;;;;5119109;27;20489;-71
2023/10/28 04:45:13;;;;;;;7.73;5.90;;;;;;;;;;5122953;27;20457;-71
2023/10/28 04:47:45;;;;;;;8.33;6.37;;;;;;;;;;5113955;27;20455;-71
2023/10/28 04:50:11;;;;;;;8.00;6.30;;;;;;;;;;5118903;28;20450;-71
2023/10/28 04:52:40;;;;;;;11.50;5.70;;;;;;;;;;5119189;28;20474;-71
2023/10/28 04:55:07;;;;;;;11.63;5.73;;;;;;;;;;5119905;27;20452;-71
2023/10/28 04:57:33;;;;;;;11.40;6.40;;;;;;;;;;5120693;27;20515;-71
2023/10/28 05:00:00;;;;;;;8.83;6.00;;;;;;;;;;5119041;27;21021;-71
2023/10/28 05:02:26;;;;;;;8.50;5.70;;;;;;;;;;5118488;28;20481;-71
2023/10/28 05:04:54;;;;;;;8.83;6.00;;;;;;;;;;5119942;27;20541;-70
2023/10/28 05:07:20;;;;;;;7.90;5.70;;;;;;;;;;5101952;27;21329;-72
2023/10/28 05:09:47;;;;;;;6.03;5.27;;;;;;;;;;5120681;27;20521;-72
2023/10/28 05:12:16;;;;;;;9.20;5.97;;;;;;;;;;5119316;27;20573;-71
2023/10/28 05:14:45;;;;;;;9.17;5.87;;;;;;;;;;5129532;27;20429;-72
2023/10/28 05:17:12;;;;;;;8.80;4.83;;;;;;;;;;5127397;27;20519;-71
2023/10/28 05:19:38;;;;;;;14.13;5.23;;;;;;;;;;5124962;27;21033;-71
2023/10/28 05:22:08;;;;;;;7.70;5.00;;;;;;;;;;5121840;27;20512;-71
2023/10/28 05:24:34;;;;;;;7.90;5.73;;;;;;;;;;5124063;27;20485;-71
2023/10/28 05:27:00;;;;;;;8.70;5.40;;;;;;;;;;5131458;27;20454;-71
2023/10/28 05:29:27;;;;;;;6.40;4.20;;;;;;;;;;5126937;27;20502;-71
2023/10/28 05:31:56;;;;;;;6.00;4.43;;;;;;;;;;5118491;27;20506;-71
2023/10/28 05:34:23;;;;;;;6.20;4.40;;;;;;;;;;5133856;27;20975;-71
2023/10/28 05:36:49;;;;;;;10.43;5.47;;;;;;;;;;5136136;27;20431;-70
2023/10/28 05:39:21;;;;;;;8.17;5.87;;;;;;;;;;5133152;27;20484;-71
2023/10/28 05:41:47;;;;;;;7.57;5.37;;;;;;;;;;5120213;27;20488;-71
2023/10/28 05:44:14;;;;;;;7.87;4.80;;;;;;;;;;5119508;27;20438;-71
2023/10/28 05:46:41;;;;;;;7.40;5.10;;;;;;;;;;5134044;27;20453;-71
2023/10/28 05:49:09;;;;;;;6.07;4.40;;;;;;;;;;5123285;27;21104;-71
2023/10/28 05:51:36;;;;;;;7.03;4.30;;;;;;;;;;5129732;27;20470;-72
2023/10/28 05:54:03;;;;;;;6.20;3.70;;;;;;;;;;5121581;27;20457;-71
2023/10/28 05:56:31;;;;;;;4.50;3.77;;;;;;;;;;5121402;27;20467;-71
2023/10/28 05:58:58;;;;;;;7.30;4.10;;;;;;;;;;5125911;27;20473;-71
2023/10/28 06:01:25;;;;;;;5.20;3.50;;;;;;;;;;5130649;27;20453;-71
2023/10/28 06:03:51;;;;;;;6.00;3.63;;;;;;;;;;5133228;27;20472;-72
2023/10/28 06:06:17;;;;;;;5.40;3.80;;;;;;;;;;5123571;27;20490;-71
2023/10/28 06:08:44;;;;;;;5.50;3.47;;;;;;;;;;5111422;28;20532;-71
2023/10/28 06:11:10;;;;;;;6.20;3.80;;;;;;;;;;5123620;27;20452;-71
2023/10/28 06:13:40;;;;;;;4.33;3.10;;;;;;;;;;5108524;28;20485;-71
2023/10/28 06:16:06;;;;;;;5.50;3.40;;;;;;;;;;5117084;28;20458;-70
2023/10/28 06:18:33;;;;;;;9.83;3.10;;;;;;;;;;5122445;27;20489;-70
2023/10/28 06:21:00;;;;;;;10.33;4.20;;;;;;;;;;5124125;28;20457;-70
2023/10/28 06:23:26;;;;;;;3.50;3.20;;;;;;;;;;5117220;28;20472;-71
2023/10/28 06:25:53;;;;;;;7.60;3.10;;;;;;;;;;5124475;28;20938;-71
2023/10/28 06:28:19;;;;;;;5.50;3.70;;;;;;;;;;5124793;28;20926;-71
2023/10/28 06:30:48;;;;;;;4.93;4.40;;;;;;;;;;5110209;28;20596;-72
2023/10/28 06:33:14;;;;;;;6.33;4.77;;;;;;;;;;5112671;28;20458;-71
2023/10/28 06:35:41;;;;;;;5.30;4.30;;;;;;;;;;5106601;28;21016;-71
2023/10/28 06:38:08;;;;;;;6.77;4.10;;;;;;;;;;5112236;28;21266;-71
2023/10/28 06:40:37;;;;;;;8.60;4.80;;;;;;;;;;5104701;28;20818;-71
2023/10/28 06:43:03;;;;;;;6.87;4.60;;;;;;;;;;5111198;28;20503;-70
2023/10/28 06:45:30;;;;;;;7.60;5.10;;;;;;;;;;5108945;28;20462;-71
2023/10/28 06:47:58;;;;;;;6.03;5.23;;;;;;;;;;5109879;28;20550;-72
2023/10/28 06:50:24;;;;;;;9.00;5.60;;;;;;;;;;5107257;28;20483;-71
2023/10/28 06:52:51;;;;;;;8.97;4.83;;;;;;;;;;5108767;28;20447;-71
2023/10/28 06:55:18;;;;;;;6.70;5.10;;;;;;;;;;5112463;28;20462;-72
2023/10/28 06:57:44;;;;;;;9.40;5.30;;;;;;;;;;5109937;28;20461;-71
2023/10/28 07:00:13;;;;;;;7.90;5.43;;;;;;;;;;5113459;28;20438;-70
2023/10/28 07:02:40;;;;;;;10.10;5.20;;;;;;;;;;5106020;28;20458;-72
2023/10/28 07:05:08;;;;;;;7.77;4.60;;;;;;;;;;5105682;28;20458;-71
2023/10/28 07:07:35;;;;;;;5.37;3.63;;;;;;;;;;5108381;28;20458;-72
2023/10/28 07:10:01;;;;;;;7.40;4.80;;;;;;;;;;5110480;28;20479;-70
2023/10/28 07:12:28;;;;;;;6.93;3.80;;;;;;;;;;5114040;28;20478;-71
2023/10/28 07:14:55;;;;;;;7.33;3.13;;;;;;;;;;5110465;28;20453;-71
2023/10/28 07:17:22;;;;;;;5.33;2.93;;;;;;;;;;5107658;28;20481;-71
2023/10/28 07:19:48;;;;;;;4.30;3.57;;;;;;;;;;5109010;28;20509;-70
2023/10/28 07:22:16;;;;;;;8.20;3.80;;;;;;;;;;5110819;28;20522;-72
2023/10/28 07:24:43;;;;;;;7.10;3.90;;;;;;;;;;5111811;28;20538;-71
2023/10/28 07:27:09;;;;;;;4.33;3.20;;;;;;;;;;5114759;27;20473;-71
2023/10/28 07:29:36;;;;;;;6.27;3.83;;;;;;;;;;5111284;27;20946;-71
2023/10/28 07:32:05;;;;;;;8.17;4.40;;;;;;;;;;5112622;27;20995;-71
2023/10/28 07:34:31;;;;;;;6.33;4.23;;;;;;;;;;5112739;27;20557;-71
2023/10/28 07:36:59;;;;;;;8.00;4.60;;;;;;;;;;5111739;27;20453;-71
2023/10/28 07:39:27;;;;;;;10.03;4.30;;;;;;;;;;5109362;27;20506;-71
2023/10/28 07:41:53;;;;;;;5.90;3.90;;;;;;;;;;5111294;27;20494;-71
2023/10/28 07:44:28;;;;;;;6.97;4.33;;;;;;;;;;5109124;27;20592;-71
2023/10/28 07:46:55;;;;;;;5.27;4.77;;;;;;;;;;5112101;27;20526;-71
2023/10/28 07:49:23;;;;;;;4.77;3.57;;;;;;;;;;5115489;27;20517;-71
2023/10/28 07:51:50;;;;;;;8.43;4.23;;;;;;;;;;5114301;27;20451;-70
2023/10/28 07:54:16;;;;;;;6.47;4.73;;;;;;;;;;5113761;28;20477;-70
2023/10/28 07:56:44;;;;;;;9.27;4.93;;;;;;;;;;5117247;27;20457;-70
2023/10/28 07:59:11;;;;;;;8.23;6.33;;;;;;;;;;5127389;27;20447;-70
2023/10/28 08:01:39;;;;;;;5.43;4.23;;;;;;;;;;5120858;27;20458;-70
2023/10/28 08:04:06;;;;;;;14.53;5.03;;;;;;;;;;5118656;27;20514;-70
2023/10/28 08:06:32;;;;;;;9.17;7.00;;;;;;;;;;5130707;27;21078;-70
2023/10/28 08:09:04;;;;;;;9.27;7.13;;;;;;;;;;5124109;27;20527;-71
2023/10/28 08:11:31;;;;;;;10.10;6.00;;;;;;;;;;5115342;27;20470;-70
2023/10/28 08:13:59;;;;;;;10.40;7.40;;;;;;;;;;5124594;27;20480;-71
2023/10/28 08:16:26;;;;;;;16.40;13.57;;;;;;;;;;5120617;27;20481;-70
2023/10/28 08:18:52;;;;;;;11.80;7.13;;;;;;;;;;5109151;27;20467;-70
2023/10/28 08:21:19;;;;;;;7.20;5.00;;;;;;;;;;5128532;27;20481;-70
2023/10/28 08:23:45;;;;;;;10.60;7.20;;;;;;;;;;5121756;27;20550;-70
2023/10/28 08:26:14;;;;;;;9.40;6.53;;;;;;;;;;5132649;27;20457;-70
2023/10/28 08:28:41;;;;;;;18.47;9.50;;;;;;;;;;5125184;27;20471;-70
2023/10/28 08:31:09;;;;;;;8.40;6.53;;;;;;;;;;5110729;28;20460;-70
2023/10/28 08:33:35;;;;;;;5.10;4.60;;;;;;;;;;5111853;27;20487;-68
2023/10/28 08:36:02;;;;;;;5.67;5.13;;;;;;;;;;5115333;27;20493;-70
2023/10/28 08:38:28;;;;;;;8.53;5.20;;;;;;;;;;5113560;27;20450;-69
2023/10/28 08:40:55;;;;;;;5.50;4.43;;;;;;;;;;5132058;27;20445;-69
2023/10/28 08:43:21;;;;;;;4.90;3.43;;;;;;;;;;5124673;27;20454;-68
2023/10/28 08:45:50;;;;;;;8.73;4.53;;;;;;;;;;5122313;27;20442;-69
2023/10/28 08:48:24;;;;;;;4.23;3.00;;;;;;;;;;5108929;27;20787;-69
2023/10/28 08:50:53;;;;;;;3.60;3.30;;;;;;;;;;5110095;28;20519;-69
2023/10/28 08:53:22;;;;;;;5.37;4.87;;;;;;;;;;5111946;27;21272;-64
2023/10/28 08:55:50;;;;;;;3.03;2.73;;;;;;;;;;5107266;27;20568;-68
2023/10/28 08:58:18;;;;;;;4.60;2.90;;;;;;;;;;5119733;27;20918;-69
2023/10/28 09:00:45;;;;;;;2.70;2.37;;;;;;;;;;5111842;27;20455;-66
2023/10/28 09:03:11;;;;;;;4.10;2.70;;;;;;;;;;5117996;28;20477;-67
2023/10/28 09:05:40;;;;;;;3.53;2.57;;;;;;;;;;5118013;27;20485;-67
2023/10/28 09:08:06;;;;;;;3.13;2.50;;;;;;;;;;5115855;27;20463;-68
2023/10/28 09:10:34;;;;;;;3.50;2.93;;;;;;;;;;5109726;28;20584;-69
2023/10/28 09:13:06;;;;;;;5.53;2.77;;;;;;;;;;5108295;27;20462;-69
2023/10/28 09:15:34;;;;;;;3.67;1.93;;;;;;;;;;5113820;27;20476;-68
2023/10/28 09:18:01;;;;;;;1.60;1.50;;;;;;;;;;5107524;27;21029;-69
2023/10/28 09:20:28;;;;;;;1.80;1.53;;;;;;;;;;5111952;27;20529;-67
2023/10/28 09:22:55;;;;;;;1.67;1.57;;;;;;;;;;5113814;27;20500;-69
2023/10/28 09:25:24;;;;;;;2.60;1.70;;;;;;;;;;5115470;27;20511;-66
2023/10/28 09:27:52;;;;;;;2.20;2.00;;;;;;;;;;5114806;28;20454;-68
2023/10/28 09:30:21;;;;;;;2.93;1.60;;;;;;;;;;5114341;27;20484;-67
2023/10/28 09:32:48;;;;;;;1.97;1.87;;;;;;;;;;5113348;27;20832;-68
2023/10/28 09:35:17;;;;;;;2.30;2.10;;;;;;;;;;5107783;27;20486;-68
2023/10/28 09:37:44;;;;;;;2.67;2.10;;;;;;;;;;5115903;27;20505;-68
2023/10/28 09:40:13;;;;;;;3.67;2.60;;;;;;;;;;5117274;27;20480;-68
2023/10/28 09:42:39;;;;;;;6.43;2.30;;;;;;;;;;5114054;27;20496;-68
2023/10/28 09:45:08;;;;;;;1.97;1.87;;;;;;;;;;5113638;28;20474;-67
2023/10/28 09:47:39;;;;;;;3.00;2.00;;;;;;;;;;5114580;27;21276;-68
2023/10/28 09:50:12;;;;;;;6.63;2.60;;;;;;;;;;5109721;28;21272;-68
2023/10/28 09:52:42;;;;;;;3.57;2.20;;;;;;;;;;5111287;28;20895;-68
2023/10/28 09:55:11;;;;;;;4.20;1.70;;;;;;;;;;5118469;27;20468;-68
2023/10/28 09:57:40;;;;;;;3.77;2.40;;;;;;;;;;5117017;27;20461;-68
2023/10/28 10:00:10;;;;;;;2.60;2.40;;;;;;;;;;5116085;27;20453;-69
2023/10/28 10:02:52;;;;;;;3.13;2.23;;;;;;;;;;5111927;27;20529;-67
2023/10/28 10:05:21;;;;;;;4.17;2.00;;;;;;;;;;5109652;28;20797;-68
2023/10/28 10:07:47;;;;;;;2.90;2.07;;;;;;;;;;5111704;28;20482;-68
2023/10/28 10:10:16;;;;;;;2.97;2.10;;;;;;;;;;5112990;27;20494;-68
2023/10/28 10:12:49;;;;;;;3.10;2.30;;;;;;;;;;5118368;27;20458;-68
2023/10/28 10:15:19;;;;;;;2.30;1.80;;;;;;;;;;5109904;28;20456;-69
2023/10/28 10:17:54;;;;;;;2.50;1.97;;;;;;;;;;5122516;27;20484;-68
2023/10/28 10:20:25;;;;;;;2.10;1.90;;;;;;;;;;5114497;27;20820;-73
2023/10/28 10:22:56;;;;;;;2.20;2.00;;;;;;;;;;5113594;27;20528;-71
2023/10/28 10:25:30;;;;;;;2.13;1.93;;;;;;;;;;5105280;28;20486;-70
2023/10/28 10:28:08;;;;;;;5.17;1.77;;;;;;;;;;5112999;28;20486;-70
2023/10/28 10:30:35;;;;;;;2.07;1.70;;;;;;;;;;5117593;28;20477;-69
2023/10/28 10:33:01;;;;;;;2.00;1.80;;;;;;;;;;5116264;28;20528;-72
2023/10/28 10:35:30;;;;;;;2.80;2.13;;;;;;;;;;5116600;28;20473;-68
2023/10/28 10:38:00;;;;;;;1.80;1.60;;;;;;;;;;5111671;28;20446;-71
2023/10/28 10:40:27;;;;;;;2.37;1.50;;;;;;;;;;5116122;28;20588;-74
2023/10/28 10:42:56;;;;;;;6.00;1.93;;;;;;;;;;5116580;28;20498;-72
2023/10/28 10:45:24;;;;;;;5.07;1.80;;;;;;;;;;5116672;28;20464;-72
2023/10/28 10:47:50;;;;;;;2.00;1.80;;;;;;;;;;5118995;28;20469;-73
2023/10/28 10:50:16;;;;;;;1.87;1.70;;;;;;;;;;5116197;28;20484;-72
2023/10/28 10:52:43;;;;;;;2.80;1.80;;;;;;;;;;5117805;28;20470;-74
2023/10/28 10:55:14;;;;;;;2.70;1.60;;;;;;;;;;5121298;28;20460;-73
2023/10/28 10:57:43;;;;;;;1.83;1.70;;;;;;;;;;5116875;27;20481;-73
2023/10/28 11:00:12;;;;;;;2.53;1.67;;;;;;;;;;5120792;27;20460;-71
2023/10/28 11:02:43;;;;;;;4.20;1.57;;;;;;;;;;5118646;27;20485;-71
2023/10/28 11:05:11;;;;;;;1.80;1.50;;;;;;;;;;5126592;27;20489;-70
2023/10/28 11:07:37;;;;;;;1.40;1.30;;;;;;;;;;5124286;27;20441;-73
2023/10/28 11:10:08;;;;;;;1.80;1.30;;;;;;;;;;5115335;27;20504;-72
2023/10/28 11:12:34;;;;;;;1.40;1.30;;;;;;;;;;5117017;28;20458;-70
2023/10/28 11:15:01;;;;;;;2.73;1.40;;;;;;;;;;5126902;27;20467;-72
2023/10/28 11:17:27;;;;;;;1.50;1.40;;;;;;;;;;5122868;27;20446;-73
2023/10/28 11:19:57;;;;;;;1.90;1.70;;;;;;;;;;5121514;27;20481;-72
2023/10/28 11:22:24;;;;;;;2.70;1.70;;;;;;;;;;5117241;28;20477;-71
2023/10/28 11:24:55;;;;;;;4.03;1.63;;;;;;;;;;5113705;27;20528;-71
2023/10/28 11:27:22;;;;;;;1.90;1.80;;;;;;;;;;5119340;27;20529;-73
2023/10/28 11:29:48;;;;;;;3.80;1.87;;;;;;;;;;5123644;27;20456;-71
2023/10/28 11:32:19;;;;;;;2.10;1.83;;;;;;;;;;5122879;27;20452;-72
2023/10/28 11:34:46;;;;;;;2.67;2.47;;;;;;;;;;5122944;27;20469;-72
2023/10/28 11:37:14;;;;;;;3.23;2.80;;;;;;;;;;5115914;27;20836;-72
2023/10/28 11:39:41;;;;;;;4.37;2.20;;;;;;;;;;5116413;28;20471;-72
2023/10/28 11:42:09;;;;;;;4.40;1.70;;;;;;;;;;5110985;27;20493;-72
2023/10/28 11:44:35;;;;;;;1.70;1.60;;;;;;;;;;5118774;27;20502;-71
2023/10/28 11:47:05;;;;;;;1.73;1.30;;;;;;;;;;5122113;27;20472;-70
2023/10/28 11:49:32;;;;;;;2.53;1.40;;;;;;;;;;5119509;27;20472;-70
2023/10/28 11:51:58;;;;;;;2.20;1.47;;;;;;;;;;5119500;28;20523;-71
2023/10/28 11:54:26;;;;;;;1.70;1.53;;;;;;;;;;5120018;27;20485;-72
2023/10/28 11:56:52;;;;;;;1.97;1.70;;;;;;;;;;5120413;27;20450;-69
2023/10/28 11:59:19;;;;;;;1.50;1.37;;;;;;;;;;5121805;27;20474;-71
2023/10/28 12:01:47;;;;;;;2.90;1.50;;;;;;;;;;5108116;28;20483;-73
2023/10/28 12:04:14;;;;;;;2.63;1.53;;;;;;;;;;5117822;28;20454;-71
2023/10/28 12:06:42;;;;;;;1.90;1.10;;;;;;;;;;5125218;27;20450;-70
2023/10/28 12:09:11;;;;;;;1.30;1.20;;;;;;;;;;5114461;28;20530;-72
2023/10/28 12:11:38;;;;;;;1.77;1.10;;;;;;;;;;5109156;28;20534;-72
2023/10/28 12:14:07;;;;;;;1.83;1.57;;;;;;;;;;5121511;27;20921;-73
2023/10/28 12:16:35;;;;;;;2.13;1.47;;;;;;;;;;5112398;28;21098;-71
2023/10/28 12:19:01;;;;;;;2.63;2.07;;;;;;;;;;5111724;27;20459;-71
2023/10/28 12:21:28;;;;;;;1.77;1.40;;;;;;;;;;5120837;27;20485;-73
2023/10/28 12:23:55;;;;;;;1.60;0.97;;;;;;;;;;5118751;27;20515;-73
2023/10/28 12:26:21;;;;;;;2.60;1.70;;;;;;;;;;5117748;27;20486;-72
2023/10/28 12:28:49;;;;;;;2.50;2.00;;;;;;;;;;5119813;27;20446;-73
2023/10/28 12:31:16;;;;;;;3.50;1.50;;;;;;;;;;5115316;27;20577;-72
2023/10/28 12:33:43;;;;;;;3.87;1.70;;;;;;;;;;5119080;27;21295;-73
2023/10/28 12:36:10;;;;;;;2.13;1.60;;;;;;;;;;5121150;27;20924;-72
2023/10/28 12:38:38;;;;;;;2.33;1.40;;;;;;;;;;5114204;27;20525;-73
2023/10/28 12:41:05;;;;;;;1.77;1.47;;;;;;;;;;5115697;27;20443;-72
2023/10/28 12:43:31;;;;;;;2.03;1.60;;;;;;;;;;5121151;27;20481;-73
2023/10/28 12:45:59;;;;;;;1.50;1.40;;;;;;;;;;5120450;27;21650;-73
2023/10/28 12:48:25;;;;;;;4.60;1.63;;;;;;;;;;5122882;27;20482;-73
2023/10/28 12:50:52;;;;;;;2.13;1.83;;;;;;;;;;5112649;28;20555;-73
2023/10/28 12:53:18;;;;;;;3.03;1.63;;;;;;;;;;5115794;27;20484;-73
2023/10/28 12:55:45;;;;;;;2.37;1.67;;;;;;;;;;5110212;27;20458;-73
2023/10/28 12:58:11;;;;;;;3.60;2.10;;;;;;;;;;5119527;27;20993;-73
2023/10/28 13:00:38;;;;;;;2.30;1.40;;;;;;;;;;5109263;27;20485;-69
2023/10/28 13:03:06;;;;;;;1.43;1.03;;;;;;;;;;5118708;27;20489;-72
2023/10/28 13:05:32;;;;;;;1.30;1.20;;;;;;;;;;5121917;27;20463;-71
2023/10/28 13:07:59;;;;;;;2.40;1.73;;;;;;;;;;5117970;28;20894;-71
2023/10/28 13:10:27;;;;;;;1.53;1.43;;;;;;;;;;5108543;27;20511;-70
2023/10/28 13:12:54;;;;;;;1.90;1.67;;;;;;;;;;5111187;28;20471;-69
2023/10/28 13:15:21;;;;;;;1.80;1.10;;;;;;;;;;5114815;28;20447;-70
2023/10/28 13:17:48;;;;;;;2.53;1.43;;;;;;;;;;5125512;27;20453;-72
2023/10/28 13:20:16;;;;;;;1.30;1.20;;;;;;;;;;5114928;28;20480;-73
2023/10/28 13:22:43;;;;;;;1.73;1.63;;;;;;;;;;5114158;27;20783;-71
2023/10/28 13:25:09;;;;;;;3.20;1.20;;;;;;;;;;5110807;28;20517;-65
2023/10/28 13:27:37;;;;;;;2.30;1.27;;;;;;;;;;5116441;27;21332;-65
2023/10/28 13:30:04;;;;;;;1.73;1.63;;;;;;;;;;5118495;27;20504;-66
2023/10/28 13:32:31;;;;;;;1.93;1.83;;;;;;;;;;5106478;28;20485;-66
2023/10/28 13:35:00;;;;;;;5.13;1.87;;;;;;;;;;5116914;27;20454;-66
2023/10/28 13:37:27;;;;;;;1.87;1.40;;;;;;;;;;5118052;27;20458;-66
2023/10/28 13:39:54;;;;;;;1.63;1.53;;;;;;;;;;5124400;27;20480;-66
2023/10/28 13:42:20;;;;;;;3.33;2.03;;;;;;;;;;5118615;28;20484;-66
2023/10/28 13:44:47;;;;;;;2.37;1.53;;;;;;;;;;5118446;27;20477;-65
2023/10/28 13:47:13;;;;;;;6.40;2.90;;;;;;;;;;5115860;27;20485;-65
2023/10/28 13:49:42;;;;;;;1.97;1.50;;;;;;;;;;5118047;28;20446;-65
2023/10/28 13:52:08;;;;;;;1.70;1.60;;;;;;;;;;5121577;27;20585;-68
2023/10/28 13:54:36;;;;;;;2.00;1.43;;;;;;;;;;5119075;27;20461;-65
2023/10/28 13:57:03;;;;;;;2.20;1.57;;;;;;;;;;5118665;27;20504;-66
2023/10/28 13:59:30;;;;;;;2.70;1.53;;;;;;;;;;5112847;27;20518;-67
2023/10/28 14:01:58;;;;;;;2.90;1.70;;;;;;;;;;5124777;27;20479;-67
2023/10/28 14:04:24;;;;;;;1.93;1.47;;;;;;;;;;5111545;27;20450;-66
2023/10/28 14:06:51;;;;;;;1.80;1.60;;;;;;;;;;5128000;27;20453;-67
2023/10/28 14:09:17;;;;;;;3.50;2.00;;;;;;;;;;5123427;27;20457;-66
2023/10/28 14:11:45;;;;;;;1.70;1.57;;;;;;;;;;5128832;27;20497;-66
2023/10/28 14:14:13;;;;;;;1.63;1.43;;;;;;;;;;5125345;27;20513;-65
2023/10/28 14:16:39;;;;;;;2.03;1.60;;;;;;;;;;5120440;27;20453;-65
2023/10/28 14:19:07;;;;;;;3.10;1.97;;;;;;;;;;5111188;28;21277;-64
2023/10/28 14:21:33;;;;;;;3.77;1.80;;;;;;;;;;5129269;27;20506;-66
2023/10/28 14:24:00;;;;;;;1.90;1.50;;;;;;;;;;5113934;27;20522;-66
2023/10/28 14:26:27;;;;;;;3.03;2.00;;;;;;;;;;5121724;27;20465;-67
2023/10/28 14:28:55;;;;;;;3.23;1.97;;;;;;;;;;5119937;28;20454;-70
2023/10/28 14:31:21;;;;;;;2.77;1.80;;;;;;;;;;5117434;28;20470;-69
2023/10/28 14:33:47;;;;;;;3.37;1.80;;;;;;;;;;5111780;27;20541;-70
2023/10/28 14:36:14;;;;;;;5.00;2.37;;;;;;;;;;5119039;27;21277;-68
2023/10/28 14:38:42;;;;;;;2.80;2.37;;;;;;;;;;5124456;27;20530;-66